sensor_id;sensor_type;location;lat;lon;timestamp;P1;durP1;ratioP1;P2;durP2;ratioP2
80127;SDS011;69440;52.118;5.408;2023-11-21T00:02:17;14.52;;;5.95;;
80127;SDS011;69440;52.118;5.408;2023-11-21T00:04:43;10.60;;;4.75;;
80127;SDS011;69440;52.118;5.408;2023-11-21T00:07:10;10.68;;;5.45;;
80127;SDS011;69440;52.118;5.408;2023-11-21T00:09:36;9.27;;;4.55;;
80127;SDS011;69440;52.118;5.408;2023-11-21T00:12:03;10.05;;;5.40;;
80127;SDS011;69440;52.118;5.408;2023-11-21T00:14:29;13.55;;;5.40;;
80127;SDS011;69440;52.118;5.408;2023-11-21T00:16:56;11.70;;;4.88;;
80127;SDS011;69440;52.118;5.408;2023-11-21T00:19:22;14.82;;;6.40;;
80127;SDS011;69440;52.118;5.408;2023-11-21T00:21:49;13.00;;;5.97;;
80127;SDS011;69440;52.118;5.408;2023-11-21T00:24:16;13.45;;;6.85;;
80127;SDS011;69440;52.118;5.408;2023-11-21T00:26:43;16.60;;;6.88;;
80127;SDS011;69440;52.118;5.408;2023-11-21T00:29:10;12.00;;;5.32;;
80127;SDS011;69440;52.118;5.408;2023-11-21T00:31:37;13.27;;;6.25;;
80127;SDS011;69440;52.118;5.408;2023-11-21T00:34:05;10.82;;;5.32;;
80127;SDS011;69440;52.118;5.408;2023-11-21T00:36:31;14.93;;;5.78;;
80127;SDS011;69440;52.118;5.408;2023-11-21T00:38:58;12.25;;;5.93;;
80127;SDS011;69440;52.118;5.408;2023-11-21T00:41:25;14.93;;;5.70;;
80127;SDS011;69440;52.118;5.408;2023-11-21T00:43:54;10.63;;;5.57;;
80127;SDS011;69440;52.118;5.408;2023-11-21T00:46:21;11.70;;;5.43;;
80127;SDS011;69440;52.118;5.408;2023-11-21T00:48:47;11.43;;;5.13;;
80127;SDS011;69440;52.118;5.408;2023-11-21T00:51:14;13.27;;;5.00;;
80127;SDS011;69440;52.118;5.408;2023-11-21T00:53:40;15.18;;;5.70;;
80127;SDS011;69440;52.118;5.408;2023-11-21T00:56:07;12.40;;;5.03;;
80127;SDS011;69440;52.118;5.408;2023-11-21T00:58:34;17.90;;;5.88;;
80127;SDS011;69440;52.118;5.408;2023-11-21T01:01:01;13.05;;;5.47;;
80127;SDS011;69440;52.118;5.408;2023-11-21T01:03:29;11.95;;;5.35;;
80127;SDS011;69440;52.118;5.408;2023-11-21T01:05:56;9.07;;;4.95;;
80127;SDS011;69440;52.118;5.408;2023-11-21T01:08:22;9.60;;;4.32;;
80127;SDS011;69440;52.118;5.408;2023-11-21T01:10:50;7.40;;;4.45;;
80127;SDS011;69440;52.118;5.408;2023-11-21T01:13:16;10.38;;;4.55;;
80127;SDS011;69440;52.118;5.408;2023-11-21T01:15:43;9.68;;;4.28;;
80127;SDS011;69440;52.118;5.408;2023-11-21T01:18:09;10.48;;;4.70;;
80127;SDS011;69440;52.118;5.408;2023-11-21T01:20:36;8.48;;;4.15;;
80127;SDS011;69440;52.118;5.408;2023-11-21T01:23:02;10.52;;;3.97;;
80127;SDS011;69440;52.118;5.408;2023-11-21T01:25:29;7.32;;;4.47;;
80127;SDS011;69440;52.118;5.408;2023-11-21T01:27:55;9.60;;;4.07;;
80127;SDS011;69440;52.118;5.408;2023-11-21T01:30:22;9.32;;;4.10;;
80127;SDS011;69440;52.118;5.408;2023-11-21T01:32:48;8.27;;;4.43;;
80127;SDS011;69440;52.118;5.408;2023-11-21T01:35:15;9.82;;;4.43;;
80127;SDS011;69440;52.118;5.408;2023-11-21T01:37:41;7.32;;;4.28;;
80127;SDS011;69440;52.118;5.408;2023-11-21T01:40:08;9.48;;;4.63;;
80127;SDS011;69440;52.118;5.408;2023-11-21T01:42:40;9.68;;;4.57;;
80127;SDS011;69440;52.118;5.408;2023-11-21T01:45:07;7.63;;;4.43;;
80127;SDS011;69440;52.118;5.408;2023-11-21T01:47:35;10.77;;;5.30;;
80127;SDS011;69440;52.118;5.408;2023-11-21T01:50:03;11.55;;;5.15;;
80127;SDS011;69440;52.118;5.408;2023-11-21T01:52:33;12.20;;;5.50;;
80127;SDS011;69440;52.118;5.408;2023-11-21T01:55:01;11.10;;;4.60;;
80127;SDS011;69440;52.118;5.408;2023-11-21T01:57:29;9.93;;;5.47;;
80127;SDS011;69440;52.118;5.408;2023-11-21T01:59:56;9.50;;;4.85;;
80127;SDS011;69440;52.118;5.408;2023-11-21T02:02:25;7.00;;;4.13;;
80127;SDS011;69440;52.118;5.408;2023-11-21T02:04:51;12.32;;;4.95;;
80127;SDS011;69440;52.118;5.408;2023-11-21T02:07:18;10.85;;;5.30;;
80127;SDS011;69440;52.118;5.408;2023-11-21T02:09:45;11.18;;;4.57;;
80127;SDS011;69440;52.118;5.408;2023-11-21T02:12:12;9.18;;;4.90;;
80127;SDS011;69440;52.118;5.408;2023-11-21T02:14:38;11.82;;;5.15;;
80127;SDS011;69440;52.118;5.408;2023-11-21T02:17:04;8.63;;;5.00;;
80127;SDS011;69440;52.118;5.408;2023-11-21T02:19:31;11.27;;;5.45;;
80127;SDS011;69440;52.118;5.408;2023-11-21T02:21:59;10.25;;;5.07;;
80127;SDS011;69440;52.118;5.408;2023-11-21T02:24:27;8.68;;;4.60;;
80127;SDS011;69440;52.118;5.408;2023-11-21T02:26:53;11.30;;;5.00;;
80127;SDS011;69440;52.118;5.408;2023-11-21T02:29:20;11.50;;;5.47;;
80127;SDS011;69440;52.118;5.408;2023-11-21T02:31:54;10.55;;;5.45;;
80127;SDS011;69440;52.118;5.408;2023-11-21T02:34:22;8.63;;;5.15;;
80127;SDS011;69440;52.118;5.408;2023-11-21T02:36:49;12.52;;;5.15;;
80127;SDS011;69440;52.118;5.408;2023-11-21T02:39:15;13.63;;;5.97;;
80127;SDS011;69440;52.118;5.408;2023-11-21T02:41:42;10.90;;;5.20;;
80127;SDS011;69440;52.118;5.408;2023-11-21T02:44:09;13.15;;;5.82;;
80127;SDS011;69440;52.118;5.408;2023-11-21T02:46:36;10.63;;;5.90;;
80127;SDS011;69440;52.118;5.408;2023-11-21T02:49:03;10.05;;;5.15;;
80127;SDS011;69440;52.118;5.408;2023-11-21T02:51:30;9.45;;;4.82;;
80127;SDS011;69440;52.118;5.408;2023-11-21T02:53:56;11.85;;;5.18;;
80127;SDS011;69440;52.118;5.408;2023-11-21T02:56:25;11.23;;;5.15;;
80127;SDS011;69440;52.118;5.408;2023-11-21T02:58:55;12.48;;;5.80;;
80127;SDS011;69440;52.118;5.408;2023-11-21T03:01:21;10.88;;;5.30;;
80127;SDS011;69440;52.118;5.408;2023-11-21T03:03:50;9.27;;;5.22;;
80127;SDS011;69440;52.118;5.408;2023-11-21T03:06:18;11.93;;;5.80;;
80127;SDS011;69440;52.118;5.408;2023-11-21T03:08:45;10.80;;;5.00;;
80127;SDS011;69440;52.118;5.408;2023-11-21T03:11:12;11.10;;;5.38;;
80127;SDS011;69440;52.118;5.408;2023-11-21T03:13:39;9.75;;;5.05;;
80127;SDS011;69440;52.118;5.408;2023-11-21T03:16:08;11.13;;;5.65;;
80127;SDS011;69440;52.118;5.408;2023-11-21T03:18:35;12.68;;;4.78;;
80127;SDS011;69440;52.118;5.408;2023-11-21T03:21:03;11.18;;;4.68;;
80127;SDS011;69440;52.118;5.408;2023-11-21T03:23:31;11.57;;;4.65;;
80127;SDS011;69440;52.118;5.408;2023-11-21T03:25:57;10.20;;;5.22;;
80127;SDS011;69440;52.118;5.408;2023-11-21T03:28:26;15.70;;;5.47;;
80127;SDS011;69440;52.118;5.408;2023-11-21T03:30:53;11.25;;;5.47;;
80127;SDS011;69440;52.118;5.408;2023-11-21T03:33:20;12.07;;;5.75;;
80127;SDS011;69440;52.118;5.408;2023-11-21T03:35:46;10.80;;;5.30;;
80127;SDS011;69440;52.118;5.408;2023-11-21T03:38:13;12.77;;;6.00;;
80127;SDS011;69440;52.118;5.408;2023-11-21T03:40:39;13.80;;;5.50;;
80127;SDS011;69440;52.118;5.408;2023-11-21T03:43:06;15.00;;;5.03;;
80127;SDS011;69440;52.118;5.408;2023-11-21T03:45:32;11.20;;;4.90;;
80127;SDS011;69440;52.118;5.408;2023-11-21T03:47:59;12.27;;;5.07;;
80127;SDS011;69440;52.118;5.408;2023-11-21T03:50:30;13.80;;;5.90;;
80127;SDS011;69440;52.118;5.408;2023-11-21T03:52:57;11.30;;;5.03;;
80127;SDS011;69440;52.118;5.408;2023-11-21T03:55:23;12.18;;;5.15;;
80127;SDS011;69440;52.118;5.408;2023-11-21T03:57:51;11.77;;;5.22;;
80127;SDS011;69440;52.118;5.408;2023-11-21T04:00:18;13.95;;;5.60;;
80127;SDS011;69440;52.118;5.408;2023-11-21T04:02:46;12.18;;;5.00;;
80127;SDS011;69440;52.118;5.408;2023-11-21T04:05:13;10.65;;;5.25;;
80127;SDS011;69440;52.118;5.408;2023-11-21T04:07:39;9.68;;;5.15;;
80127;SDS011;69440;52.118;5.408;2023-11-21T04:10:06;11.48;;;5.28;;
80127;SDS011;69440;52.118;5.408;2023-11-21T04:12:35;7.97;;;5.18;;
80127;SDS011;69440;52.118;5.408;2023-11-21T04:15:02;10.95;;;4.70;;
80127;SDS011;69440;52.118;5.408;2023-11-21T04:17:29;14.00;;;5.07;;
80127;SDS011;69440;52.118;5.408;2023-11-21T04:19:57;12.32;;;4.93;;
80127;SDS011;69440;52.118;5.408;2023-11-21T04:22:23;14.18;;;4.90;;
80127;SDS011;69440;52.118;5.408;2023-11-21T04:24:50;12.10;;;4.97;;
80127;SDS011;69440;52.118;5.408;2023-11-21T04:27:16;13.93;;;5.60;;
80127;SDS011;69440;52.118;5.408;2023-11-21T04:29:46;12.80;;;5.38;;
80127;SDS011;69440;52.118;5.408;2023-11-21T04:32:12;10.57;;;5.57;;
80127;SDS011;69440;52.118;5.408;2023-11-21T04:34:39;13.23;;;5.95;;
80127;SDS011;69440;52.118;5.408;2023-11-21T04:37:05;13.60;;;5.63;;
80127;SDS011;69440;52.118;5.408;2023-11-21T04:39:32;11.23;;;6.28;;
80127;SDS011;69440;52.118;5.408;2023-11-21T04:41:59;13.60;;;5.90;;
80127;SDS011;69440;52.118;5.408;2023-11-21T04:44:25;13.95;;;5.93;;
80127;SDS011;69440;52.118;5.408;2023-11-21T04:46:52;14.45;;;5.70;;
80127;SDS011;69440;52.118;5.408;2023-11-21T04:49:18;12.32;;;5.55;;
80127;SDS011;69440;52.118;5.408;2023-11-21T04:51:45;12.52;;;6.03;;
80127;SDS011;69440;52.118;5.408;2023-11-21T04:54:11;13.60;;;5.55;;
80127;SDS011;69440;52.118;5.408;2023-11-21T04:56:37;15.35;;;6.00;;
80127;SDS011;69440;52.118;5.408;2023-11-21T04:59:04;12.57;;;5.95;;
80127;SDS011;69440;52.118;5.408;2023-11-21T05:01:31;13.38;;;5.60;;
80127;SDS011;69440;52.118;5.408;2023-11-21T05:03:58;12.35;;;5.68;;
80127;SDS011;69440;52.118;5.408;2023-11-21T05:06:25;12.65;;;5.95;;
80127;SDS011;69440;52.118;5.408;2023-11-21T05:08:51;14.05;;;5.72;;
80127;SDS011;69440;52.118;5.408;2023-11-21T05:11:24;15.73;;;6.53;;
80127;SDS011;69440;52.118;5.408;2023-11-21T05:13:55;14.07;;;7.05;;
80127;SDS011;69440;52.118;5.408;2023-11-21T05:16:24;12.85;;;6.38;;
80127;SDS011;69440;52.118;5.408;2023-11-21T05:18:52;12.77;;;5.82;;
80127;SDS011;69440;52.118;5.408;2023-11-21T05:21:18;16.25;;;7.10;;
80127;SDS011;69440;52.118;5.408;2023-11-21T05:23:47;14.27;;;6.50;;
80127;SDS011;69440;52.118;5.408;2023-11-21T05:26:13;10.52;;;5.97;;
80127;SDS011;69440;52.118;5.408;2023-11-21T05:28:39;14.88;;;6.35;;
80127;SDS011;69440;52.118;5.408;2023-11-21T05:31:06;13.40;;;5.80;;
80127;SDS011;69440;52.118;5.408;2023-11-21T05:33:42;14.57;;;5.57;;
80127;SDS011;69440;52.118;5.408;2023-11-21T05:36:08;13.45;;;6.10;;
80127;SDS011;69440;52.118;5.408;2023-11-21T05:38:36;15.77;;;6.00;;
80127;SDS011;69440;52.118;5.408;2023-11-21T05:41:03;15.82;;;5.95;;
80127;SDS011;69440;52.118;5.408;2023-11-21T05:43:30;15.27;;;6.03;;
80127;SDS011;69440;52.118;5.408;2023-11-21T05:45:57;17.33;;;6.70;;
80127;SDS011;69440;52.118;5.408;2023-11-21T05:48:23;15.65;;;5.65;;
80127;SDS011;69440;52.118;5.408;2023-11-21T05:50:49;14.02;;;6.05;;
80127;SDS011;69440;52.118;5.408;2023-11-21T05:53:16;14.65;;;5.32;;
80127;SDS011;69440;52.118;5.408;2023-11-21T05:55:42;12.48;;;5.68;;
80127;SDS011;69440;52.118;5.408;2023-11-21T05:58:09;18.92;;;5.32;;
80127;SDS011;69440;52.118;5.408;2023-11-21T06:00:35;11.65;;;5.82;;
80127;SDS011;69440;52.118;5.408;2023-11-21T06:03:02;11.98;;;5.60;;
80127;SDS011;69440;52.118;5.408;2023-11-21T06:05:29;13.18;;;5.63;;
80127;SDS011;69440;52.118;5.408;2023-11-21T06:07:58;17.17;;;7.28;;
80127;SDS011;69440;52.118;5.408;2023-11-21T06:10:26;14.45;;;6.32;;
80127;SDS011;69440;52.118;5.408;2023-11-21T06:12:52;13.13;;;5.95;;
80127;SDS011;69440;52.118;5.408;2023-11-21T06:15:19;13.88;;;6.13;;
80127;SDS011;69440;52.118;5.408;2023-11-21T06:17:48;11.23;;;5.47;;
80127;SDS011;69440;52.118;5.408;2023-11-21T06:20:21;12.30;;;5.38;;
80127;SDS011;69440;52.118;5.408;2023-11-21T06:22:49;16.67;;;6.07;;
80127;SDS011;69440;52.118;5.408;2023-11-21T06:25:16;16.83;;;6.30;;
80127;SDS011;69440;52.118;5.408;2023-11-21T06:27:46;18.00;;;5.75;;
80127;SDS011;69440;52.118;5.408;2023-11-21T06:30:14;20.13;;;6.25;;
80127;SDS011;69440;52.118;5.408;2023-11-21T06:32:42;16.23;;;5.68;;
80127;SDS011;69440;52.118;5.408;2023-11-21T06:35:13;16.23;;;5.55;;
80127;SDS011;69440;52.118;5.408;2023-11-21T06:37:41;14.95;;;5.63;;
80127;SDS011;69440;52.118;5.408;2023-11-21T06:40:13;15.82;;;7.05;;
80127;SDS011;69440;52.118;5.408;2023-11-21T06:42:45;11.55;;;5.43;;
80127;SDS011;69440;52.118;5.408;2023-11-21T06:45:13;12.07;;;5.75;;
80127;SDS011;69440;52.118;5.408;2023-11-21T06:47:41;12.60;;;5.97;;
80127;SDS011;69440;52.118;5.408;2023-11-21T06:50:08;13.40;;;5.88;;
80127;SDS011;69440;52.118;5.408;2023-11-21T06:52:34;17.98;;;5.53;;
80127;SDS011;69440;52.118;5.408;2023-11-21T06:55:01;10.02;;;5.40;;
80127;SDS011;69440;52.118;5.408;2023-11-21T06:57:28;15.40;;;6.28;;
80127;SDS011;69440;52.118;5.408;2023-11-21T06:59:54;14.45;;;6.13;;
80127;SDS011;69440;52.118;5.408;2023-11-21T07:02:23;14.55;;;5.78;;
80127;SDS011;69440;52.118;5.408;2023-11-21T07:04:50;12.43;;;5.53;;
80127;SDS011;69440;52.118;5.408;2023-11-21T07:07:17;12.40;;;5.95;;
80127;SDS011;69440;52.118;5.408;2023-11-21T07:09:44;10.27;;;5.45;;
80127;SDS011;69440;52.118;5.408;2023-11-21T07:12:11;13.07;;;5.63;;
80127;SDS011;69440;52.118;5.408;2023-11-21T07:14:37;11.60;;;4.97;;
80127;SDS011;69440;52.118;5.408;2023-11-21T07:17:06;13.15;;;6.05;;
80127;SDS011;69440;52.118;5.408;2023-11-21T07:19:33;9.50;;;4.88;;
80127;SDS011;69440;52.118;5.408;2023-11-21T07:22:00;12.23;;;5.50;;
80127;SDS011;69440;52.118;5.408;2023-11-21T07:24:26;13.73;;;5.20;;
80127;SDS011;69440;52.118;5.408;2023-11-21T07:26:53;10.88;;;5.57;;
80127;SDS011;69440;52.118;5.408;2023-11-21T07:29:25;10.10;;;4.97;;
80127;SDS011;69440;52.118;5.408;2023-11-21T07:31:52;9.40;;;5.57;;
80127;SDS011;69440;52.118;5.408;2023-11-21T07:34:20;11.85;;;5.07;;
80127;SDS011;69440;52.118;5.408;2023-11-21T07:36:47;9.32;;;4.40;;
80127;SDS011;69440;52.118;5.408;2023-11-21T07:39:14;12.48;;;4.63;;
80127;SDS011;69440;52.118;5.408;2023-11-21T07:41:42;11.75;;;5.45;;
80127;SDS011;69440;52.118;5.408;2023-11-21T07:44:15;13.43;;;4.57;;
80127;SDS011;69440;52.118;5.408;2023-11-21T07:46:46;11.38;;;5.25;;
80127;SDS011;69440;52.118;5.408;2023-11-21T07:49:12;11.63;;;4.68;;
80127;SDS011;69440;52.118;5.408;2023-11-21T07:51:43;9.30;;;4.53;;
80127;SDS011;69440;52.118;5.408;2023-11-21T07:54:10;12.95;;;4.63;;
80127;SDS011;69440;52.118;5.408;2023-11-21T07:56:37;10.10;;;4.60;;
80127;SDS011;69440;52.118;5.408;2023-11-21T07:59:04;15.27;;;4.40;;
80127;SDS011;69440;52.118;5.408;2023-11-21T08:01:30;14.32;;;4.68;;
80127;SDS011;69440;52.118;5.408;2023-11-21T08:03:58;12.60;;;5.05;;
80127;SDS011;69440;52.118;5.408;2023-11-21T08:06:28;11.07;;;4.30;;
80127;SDS011;69440;52.118;5.408;2023-11-21T08:08:55;10.95;;;4.13;;
80127;SDS011;69440;52.118;5.408;2023-11-21T08:11:21;9.30;;;4.40;;
80127;SDS011;69440;52.118;5.408;2023-11-21T08:13:48;8.07;;;4.20;;
80127;SDS011;69440;52.118;5.408;2023-11-21T08:16:15;8.70;;;4.07;;
80127;SDS011;69440;52.118;5.408;2023-11-21T08:18:43;10.43;;;4.20;;
80127;SDS011;69440;52.118;5.408;2023-11-21T08:21:11;12.55;;;4.30;;
80127;SDS011;69440;52.118;5.408;2023-11-21T08:23:39;7.40;;;3.83;;
80127;SDS011;69440;52.118;5.408;2023-11-21T08:26:05;9.73;;;3.88;;
80127;SDS011;69440;52.118;5.408;2023-11-21T08:28:32;9.48;;;3.95;;
80127;SDS011;69440;52.118;5.408;2023-11-21T08:30:58;8.10;;;3.90;;
80127;SDS011;69440;52.118;5.408;2023-11-21T08:33:27;11.00;;;4.07;;
80127;SDS011;69440;52.118;5.408;2023-11-21T08:35:53;10.82;;;3.92;;
80127;SDS011;69440;52.118;5.408;2023-11-21T08:38:20;9.55;;;4.00;;
80127;SDS011;69440;52.118;5.408;2023-11-21T08:40:46;8.32;;;4.30;;
80127;SDS011;69440;52.118;5.408;2023-11-21T08:43:13;10.65;;;3.88;;
80127;SDS011;69440;52.118;5.408;2023-11-21T08:45:40;10.18;;;3.58;;
80127;SDS011;69440;52.118;5.408;2023-11-21T08:48:07;10.02;;;3.80;;
80127;SDS011;69440;52.118;5.408;2023-11-21T08:50:34;7.95;;;3.75;;
80127;SDS011;69440;52.118;5.408;2023-11-21T08:53:01;8.18;;;3.40;;
80127;SDS011;69440;52.118;5.408;2023-11-21T08:55:27;6.80;;;3.15;;
80127;SDS011;69440;52.118;5.408;2023-11-21T08:57:54;11.23;;;4.18;;
80127;SDS011;69440;52.118;5.408;2023-11-21T09:00:24;9.20;;;3.50;;
80127;SDS011;69440;52.118;5.408;2023-11-21T09:02:50;5.50;;;3.28;;
80127;SDS011;69440;52.118;5.408;2023-11-21T09:05:17;7.10;;;3.55;;
80127;SDS011;69440;52.118;5.408;2023-11-21T09:07:45;7.90;;;4.18;;
80127;SDS011;69440;52.118;5.408;2023-11-21T09:10:12;10.15;;;4.70;;
80127;SDS011;69440;52.118;5.408;2023-11-21T09:12:39;9.43;;;4.65;;
80127;SDS011;69440;52.118;5.408;2023-11-21T09:15:06;10.13;;;4.65;;
80127;SDS011;69440;52.118;5.408;2023-11-21T09:17:33;11.55;;;4.80;;
80127;SDS011;69440;52.118;5.408;2023-11-21T09:20:01;11.63;;;5.22;;
80127;SDS011;69440;52.118;5.408;2023-11-21T09:22:30;12.00;;;4.55;;
80127;SDS011;69440;52.118;5.408;2023-11-21T09:24:58;9.63;;;4.68;;
80127;SDS011;69440;52.118;5.408;2023-11-21T09:27:24;15.77;;;5.85;;
80127;SDS011;69440;52.118;5.408;2023-11-21T09:29:52;11.60;;;5.30;;
80127;SDS011;69440;52.118;5.408;2023-11-21T09:32:19;11.73;;;5.72;;
80127;SDS011;69440;52.118;5.408;2023-11-21T09:34:48;12.63;;;5.75;;
80127;SDS011;69440;52.118;5.408;2023-11-21T09:37:16;11.15;;;6.13;;
80127;SDS011;69440;52.118;5.408;2023-11-21T09:39:42;14.10;;;6.07;;
80127;SDS011;69440;52.118;5.408;2023-11-21T09:42:14;16.02;;;6.32;;
80127;SDS011;69440;52.118;5.408;2023-11-21T09:47:37;11.48;;;6.28;;
80127;SDS011;69440;52.118;5.408;2023-11-21T09:50:05;11.93;;;6.30;;
80127;SDS011;69440;52.118;5.408;2023-11-21T09:52:37;11.55;;;6.10;;
80127;SDS011;69440;52.118;5.408;2023-11-21T09:55:20;14.20;;;6.45;;
80127;SDS011;69440;52.118;5.408;2023-11-21T09:57:47;15.02;;;5.82;;
80127;SDS011;69440;52.118;5.408;2023-11-21T10:00:15;12.90;;;5.90;;
80127;SDS011;69440;52.118;5.408;2023-11-21T10:02:44;11.60;;;5.93;;
80127;SDS011;69440;52.118;5.408;2023-11-21T10:05:11;13.38;;;5.80;;
80127;SDS011;69440;52.118;5.408;2023-11-21T10:07:39;14.05;;;5.78;;
80127;SDS011;69440;52.118;5.408;2023-11-21T10:10:07;13.00;;;6.55;;
80127;SDS011;69440;52.118;5.408;2023-11-21T10:12:35;11.93;;;5.72;;
80127;SDS011;69440;52.118;5.408;2023-11-21T10:15:02;12.23;;;6.25;;
80127;SDS011;69440;52.118;5.408;2023-11-21T10:17:32;11.75;;;5.68;;
80127;SDS011;69440;52.118;5.408;2023-11-21T10:20:12;8.32;;;4.97;;
80127;SDS011;69440;52.118;5.408;2023-11-21T10:22:40;12.23;;;5.20;;
80127;SDS011;69440;52.118;5.408;2023-11-21T10:25:11;10.27;;;4.82;;
80127;SDS011;69440;52.118;5.408;2023-11-21T10:27:40;13.35;;;5.03;;
80127;SDS011;69440;52.118;5.408;2023-11-21T10:30:08;9.75;;;5.40;;
80127;SDS011;69440;52.118;5.408;2023-11-21T10:32:38;9.23;;;4.75;;
80127;SDS011;69440;52.118;5.408;2023-11-21T10:35:07;7.00;;;3.60;;
80127;SDS011;69440;52.118;5.408;2023-11-21T10:37:36;7.70;;;3.60;;
80127;SDS011;69440;52.118;5.408;2023-11-21T10:40:10;8.85;;;4.03;;
80127;SDS011;69440;52.118;5.408;2023-11-21T10:42:40;7.45;;;4.00;;
80127;SDS011;69440;52.118;5.408;2023-11-21T10:45:07;9.35;;;5.25;;
80127;SDS011;69440;52.118;5.408;2023-11-21T10:47:41;10.65;;;5.40;;
80127;SDS011;69440;52.118;5.408;2023-11-21T10:50:08;10.13;;;5.10;;
80127;SDS011;69440;52.118;5.408;2023-11-21T10:52:39;9.32;;;5.18;;
80127;SDS011;69440;52.118;5.408;2023-11-21T10:55:17;11.05;;;5.53;;
80127;SDS011;69440;52.118;5.408;2023-11-21T10:57:48;11.80;;;5.30;;
80127;SDS011;69440;52.118;5.408;2023-11-21T11:00:18;10.70;;;5.03;;
80127;SDS011;69440;52.118;5.408;2023-11-21T11:02:51;10.30;;;4.53;;
80127;SDS011;69440;52.118;5.408;2023-11-21T11:05:20;9.65;;;4.85;;
80127;SDS011;69440;52.118;5.408;2023-11-21T11:07:50;9.38;;;4.47;;
80127;SDS011;69440;52.118;5.408;2023-11-21T11:10:26;11.63;;;4.82;;
80127;SDS011;69440;52.118;5.408;2023-11-21T11:12:53;11.07;;;5.18;;
80127;SDS011;69440;52.118;5.408;2023-11-21T11:15:21;9.43;;;5.03;;
80127;SDS011;69440;52.118;5.408;2023-11-21T11:17:48;9.40;;;4.90;;
80127;SDS011;69440;52.118;5.408;2023-11-21T11:20:15;10.43;;;4.85;;
80127;SDS011;69440;52.118;5.408;2023-11-21T11:25:24;11.10;;;5.50;;
80127;SDS011;69440;52.118;5.408;2023-11-21T11:28:04;13.32;;;5.25;;
80127;SDS011;69440;52.118;5.408;2023-11-21T11:38:59;9.40;;;5.10;;
80127;SDS011;69440;52.118;5.408;2023-11-21T11:41:30;9.82;;;5.78;;
80127;SDS011;69440;52.118;5.408;2023-11-21T11:43:59;11.55;;;5.15;;
80127;SDS011;69440;52.118;5.408;2023-11-21T11:46:45;8.63;;;4.53;;
80127;SDS011;69440;52.118;5.408;2023-11-21T11:49:27;9.85;;;5.03;;
80127;SDS011;69440;52.118;5.408;2023-11-21T11:54:59;11.95;;;5.57;;
80127;SDS011;69440;52.118;5.408;2023-11-21T11:57:26;13.27;;;6.82;;
80127;SDS011;69440;52.118;5.408;2023-11-21T12:00:11;14.20;;;6.82;;
80127;SDS011;69440;52.118;5.408;2023-11-21T12:02:46;12.23;;;5.72;;
80127;SDS011;69440;52.118;5.408;2023-11-21T12:05:16;9.90;;;5.80;;
80127;SDS011;69440;52.118;5.408;2023-11-21T12:07:47;15.27;;;6.88;;
80127;SDS011;69440;52.118;5.408;2023-11-21T12:10:15;12.35;;;6.00;;
80127;SDS011;69440;52.118;5.408;2023-11-21T12:12:51;13.00;;;6.75;;
80127;SDS011;69440;52.118;5.408;2023-11-21T12:15:19;12.65;;;6.90;;
80127;SDS011;69440;52.118;5.408;2023-11-21T12:17:46;15.90;;;6.95;;
80127;SDS011;69440;52.118;5.408;2023-11-21T12:20:13;12.48;;;7.72;;
80127;SDS011;69440;52.118;5.408;2023-11-21T12:22:41;16.05;;;8.10;;
80127;SDS011;69440;52.118;5.408;2023-11-21T12:25:19;15.13;;;6.70;;
80127;SDS011;69440;52.118;5.408;2023-11-21T12:27:50;15.82;;;7.95;;
80127;SDS011;69440;52.118;5.408;2023-11-21T12:30:19;12.95;;;7.88;;
80127;SDS011;69440;52.118;5.408;2023-11-21T12:32:51;16.75;;;7.93;;
80127;SDS011;69440;52.118;5.408;2023-11-21T12:35:21;13.05;;;7.15;;
80127;SDS011;69440;52.118;5.408;2023-11-21T12:37:50;14.48;;;7.40;;
80127;SDS011;69440;52.118;5.408;2023-11-21T12:40:18;16.08;;;8.60;;
80127;SDS011;69440;52.118;5.408;2023-11-21T12:42:46;14.90;;;6.53;;
80127;SDS011;69440;52.118;5.408;2023-11-21T12:47:49;13.32;;;7.25;;
80127;SDS011;69440;52.118;5.408;2023-11-21T12:50:23;13.48;;;7.03;;
80127;SDS011;69440;52.118;5.408;2023-11-21T12:52:51;16.95;;;8.35;;
80127;SDS011;69440;52.118;5.408;2023-11-21T12:55:18;13.98;;;7.68;;
80127;SDS011;69440;52.118;5.408;2023-11-21T12:57:48;13.98;;;7.50;;
80127;SDS011;69440;52.118;5.408;2023-11-21T13:00:18;16.65;;;7.38;;
80127;SDS011;69440;52.118;5.408;2023-11-21T13:02:54;14.82;;;8.00;;
80127;SDS011;69440;52.118;5.408;2023-11-21T13:05:33;14.32;;;7.45;;
80127;SDS011;69440;52.118;5.408;2023-11-21T13:08:01;12.98;;;6.72;;
80127;SDS011;69440;52.118;5.408;2023-11-21T13:10:30;16.90;;;7.80;;
80127;SDS011;69440;52.118;5.408;2023-11-21T13:12:58;14.52;;;7.60;;
80127;SDS011;69440;52.118;5.408;2023-11-21T13:15:26;13.68;;;7.30;;
80127;SDS011;69440;52.118;5.408;2023-11-21T13:17:54;15.50;;;7.10;;
80127;SDS011;69440;52.118;5.408;2023-11-21T13:20:20;13.20;;;7.05;;
80127;SDS011;69440;52.118;5.408;2023-11-21T13:22:48;13.57;;;6.93;;
80127;SDS011;69440;52.118;5.408;2023-11-21T13:25:25;11.68;;;5.65;;
80127;SDS011;69440;52.118;5.408;2023-11-21T13:27:59;10.18;;;5.32;;
80127;SDS011;69440;52.118;5.408;2023-11-21T13:30:27;9.27;;;4.68;;
80127;SDS011;69440;52.118;5.408;2023-11-21T13:33:00;7.80;;;4.30;;
80127;SDS011;69440;52.118;5.408;2023-11-21T13:35:33;6.57;;;3.47;;
80127;SDS011;69440;52.118;5.408;2023-11-21T13:38:11;5.03;;;2.80;;
80127;SDS011;69440;52.118;5.408;2023-11-21T13:40:39;6.20;;;2.63;;
80127;SDS011;69440;52.118;5.408;2023-11-21T13:43:11;4.45;;;2.35;;
80127;SDS011;69440;52.118;5.408;2023-11-21T13:45:40;5.03;;;2.30;;
80127;SDS011;69440;52.118;5.408;2023-11-21T13:48:10;5.00;;;2.90;;
80127;SDS011;69440;52.118;5.408;2023-11-21T13:50:40;5.40;;;2.53;;
80127;SDS011;69440;52.118;5.408;2023-11-21T13:53:14;5.60;;;2.80;;
80127;SDS011;69440;52.118;5.408;2023-11-21T13:55:48;8.65;;;3.88;;
80127;SDS011;69440;52.118;5.408;2023-11-21T13:58:16;9.50;;;4.18;;
80127;SDS011;69440;52.118;5.408;2023-11-21T14:00:49;9.40;;;4.53;;
80127;SDS011;69440;52.118;5.408;2023-11-21T14:03:25;9.95;;;5.10;;
80127;SDS011;69440;52.118;5.408;2023-11-21T14:06:04;10.48;;;4.88;;
80127;SDS011;69440;52.118;5.408;2023-11-21T14:08:40;11.50;;;5.95;;
80127;SDS011;69440;52.118;5.408;2023-11-21T14:11:07;13.40;;;6.10;;
80127;SDS011;69440;52.118;5.408;2023-11-21T14:13:35;14.73;;;6.40;;
80127;SDS011;69440;52.118;5.408;2023-11-21T14:16:02;13.25;;;6.60;;
80127;SDS011;69440;52.118;5.408;2023-11-21T14:18:28;15.07;;;7.07;;
80127;SDS011;69440;52.118;5.408;2023-11-21T14:21:04;16.42;;;7.93;;
80127;SDS011;69440;52.118;5.408;2023-11-21T14:23:36;15.13;;;7.18;;
80127;SDS011;69440;52.118;5.408;2023-11-21T14:26:04;15.23;;;7.85;;
80127;SDS011;69440;52.118;5.408;2023-11-21T14:28:32;16.15;;;7.78;;
80127;SDS011;69440;52.118;5.408;2023-11-21T14:31:01;15.40;;;7.30;;
80127;SDS011;69440;52.118;5.408;2023-11-21T14:33:28;16.73;;;7.07;;
80127;SDS011;69440;52.118;5.408;2023-11-21T14:35:54;14.75;;;7.30;;
80127;SDS011;69440;52.118;5.408;2023-11-21T14:38:21;17.60;;;7.68;;
80127;SDS011;69440;52.118;5.408;2023-11-21T14:40:48;16.15;;;7.70;;
80127;SDS011;69440;52.118;5.408;2023-11-21T14:43:15;16.27;;;8.20;;
80127;SDS011;69440;52.118;5.408;2023-11-21T14:45:43;16.90;;;7.85;;
80127;SDS011;69440;52.118;5.408;2023-11-21T14:48:09;18.30;;;8.48;;
80127;SDS011;69440;52.118;5.408;2023-11-21T14:50:42;17.80;;;7.55;;
80127;SDS011;69440;52.118;5.408;2023-11-21T14:53:22;15.90;;;7.30;;
80127;SDS011;69440;52.118;5.408;2023-11-21T14:56:11;18.13;;;9.38;;
80127;SDS011;69440;52.118;5.408;2023-11-21T14:58:47;17.05;;;8.48;;
80127;SDS011;69440;52.118;5.408;2023-11-21T15:01:14;19.42;;;9.07;;
80127;SDS011;69440;52.118;5.408;2023-11-21T15:03:40;17.77;;;8.82;;
80127;SDS011;69440;52.118;5.408;2023-11-21T15:06:12;19.23;;;9.60;;